Time;durP1;ratioP1;P1;durP2;ratioP2;P2;SDS_P1;SDS_P2;PMS_P1;PMS_P2;Temp;Humidity;BMP_temperature;BMP_pressure;BME280_temperature;BME280_humidity;BME280_pressure;Samples;Min_cycle;Max_cycle;Signal;HPM_P1;HPM_P2
2021/01/07 00:01:11;;;;;;;16.83;11.65;;;4.30;99.90;;;;;;5050700;28;20021;-58
2021/01/07 00:03:39;;;;;;;19.48;11.93;;;4.40;99.90;;;;;;5052471;28;20036;-59
2021/01/07 00:06:12;;;;;;;20.52;12.88;;;4.50;99.90;;;;;;5050717;28;20025;-58
2021/01/07 00:08:38;;;;;;;18.77;11.40;;;4.40;99.90;;;;;;5052776;28;20029;-59
2021/01/07 00:11:05;;;;;;;22.25;12.35;;;4.20;99.90;;;;;;5050918;28;20485;-60
2021/01/07 00:13:31;;;;;;;22.20;12.20;;;4.30;99.90;;;;;;5049901;28;20091;-61
2021/01/07 00:15:57;;;;;;;20.83;12.57;;;4.20;99.90;;;;;;5032515;28;20041;-66
2021/01/07 00:18:23;;;;;;;20.30;13.32;;;4.30;99.90;;;;;;5050069;28;20437;-59
2021/01/07 00:20:48;;;;;;;23.13;13.48;;;4.40;99.90;;;;;;5050266;28;20032;-59
2021/01/07 00:23:14;;;;;;;19.15;11.65;;;4.40;99.90;;;;;;5049274;28;20041;-58
2021/01/07 00:25:51;;;;;;;21.38;12.60;;;4.40;99.90;;;;;;5049980;28;20411;-58
2021/01/07 00:28:18;;;;;;;24.23;12.80;;;4.30;99.90;;;;;;5052197;28;20916;-59
2021/01/07 00:30:44;;;;;;;19.90;12.20;;;4.30;99.90;;;;;;5053845;28;20542;-58
2021/01/07 00:33:12;;;;;;;20.00;12.45;;;4.30;99.90;;;;;;5053321;28;20045;-58
2021/01/07 00:35:37;;;;;;;19.42;12.80;;;4.20;99.90;;;;;;5053925;28;20028;-58
2021/01/07 00:38:06;;;;;;;21.50;12.68;;;4.30;99.90;;;;;;5053390;28;20457;-59
2021/01/07 00:40:33;;;;;;;22.40;13.15;;;4.20;99.90;;;;;;5053867;28;20441;-58
2021/01/07 00:42:59;;;;;;;21.15;12.80;;;4.10;99.90;;;;;;5053235;28;20029;-62
2021/01/07 00:45:25;;;;;;;22.13;12.45;;;4.00;99.90;;;;;;5055398;28;20041;-58
2021/01/07 00:47:50;;;;;;;22.55;13.43;;;4.10;99.90;;;;;;5054881;28;20033;-59
2021/01/07 00:50:17;;;;;;;19.00;12.02;;;4.20;99.90;;;;;;5054215;28;20474;-58
2021/01/07 00:52:43;;;;;;;20.48;11.60;;;4.30;99.90;;;;;;5055875;28;20095;-58
2021/01/07 00:55:10;;;;;;;27.27;13.10;;;4.40;99.90;;;;;;5052976;28;20029;-58
2021/01/07 00:57:36;;;;;;;20.55;11.10;;;4.30;99.90;;;;;;5053553;28;20059;-59
2021/01/07 01:00:05;;;;;;;19.30;12.10;;;4.40;99.90;;;;;;5053045;28;20047;-59
2021/01/07 01:02:31;;;;;;;22.20;13.02;;;4.20;99.90;;;;;;5053365;28;20452;-58
2021/01/07 01:04:57;;;;;;;22.25;12.60;;;4.20;99.90;;;;;;5053522;28;20037;-59
2021/01/07 01:07:23;;;;;;;21.58;12.10;;;4.20;99.90;;;;;;5052680;28;20021;-59
2021/01/07 01:09:48;;;;;;;23.50;13.25;;;4.10;99.90;;;;;;5053481;28;20422;-58
2021/01/07 01:12:14;;;;;;;19.63;12.18;;;4.00;99.90;;;;;;5052585;28;20142;-58
2021/01/07 01:14:40;;;;;;;21.08;12.00;;;4.10;99.90;;;;;;5053176;28;20497;-58
2021/01/07 01:17:05;;;;;;;20.67;12.60;;;4.10;99.90;;;;;;5052544;28;20053;-64
2021/01/07 01:19:32;;;;;;;20.80;12.60;;;4.20;99.90;;;;;;5053402;28;20029;-58
2021/01/07 01:21:58;;;;;;;19.55;11.73;;;4.20;99.90;;;;;;5053221;28;20182;-58
2021/01/07 01:24:23;;;;;;;20.08;12.77;;;4.20;99.90;;;;;;5054149;28;20072;-60
2021/01/07 01:26:59;;;;;;;19.40;12.40;;;4.10;99.90;;;;;;5054889;28;20065;-62
2021/01/07 01:29:25;;;;;;;19.73;11.82;;;4.00;99.90;;;;;;5055957;28;20024;-59
2021/01/07 01:31:52;;;;;;;20.90;12.70;;;4.00;99.90;;;;;;5056077;28;20079;-63
2021/01/07 01:34:18;;;;;;;19.17;11.82;;;4.10;99.90;;;;;;5055309;28;20551;-58
2021/01/07 01:36:44;;;;;;;22.65;12.52;;;4.20;99.90;;;;;;5054525;28;20120;-59
2021/01/07 01:39:10;;;;;;;19.00;11.88;;;4.20;99.90;;;;;;5052495;28;20112;-58
2021/01/07 01:41:44;;;;;;;19.13;11.63;;;4.30;99.90;;;;;;5056229;28;20036;-58
2021/01/07 01:44:10;;;;;;;19.33;11.43;;;4.30;99.90;;;;;;5053516;28;20025;-58
2021/01/07 01:46:36;;;;;;;20.65;11.07;;;4.20;99.90;;;;;;5053562;28;20402;-58
2021/01/07 01:49:02;;;;;;;17.08;10.77;;;4.20;99.90;;;;;;5053615;28;20075;-72
2021/01/07 01:51:30;;;;;;;19.02;10.93;;;4.00;99.90;;;;;;5055101;28;20083;-59
2021/01/07 01:53:56;;;;;;;16.48;10.52;;;4.00;99.90;;;;;;5053788;28;20040;-59
2021/01/07 01:56:21;;;;;;;17.27;9.40;;;4.10;99.90;;;;;;5052776;28;20228;-59
2021/01/07 01:58:49;;;;;;;15.55;8.80;;;3.90;99.90;;;;;;5055294;28;20107;-60
2021/01/07 02:01:15;;;;;;;17.20;9.27;;;3.90;99.90;;;;;;5053933;28;20025;-58
2021/01/07 02:03:41;;;;;;;15.45;9.63;;;4.00;99.90;;;;;;5054908;28;20051;-58
2021/01/07 02:06:11;;;;;;;13.88;9.02;;;3.80;99.90;;;;;;5053500;28;20021;-62
2021/01/07 02:08:37;;;;;;;14.88;9.02;;;3.90;99.90;;;;;;5055428;28;20025;-59
2021/01/07 02:11:03;;;;;;;17.98;7.90;;;4.00;99.90;;;;;;5054512;28;20025;-70
2021/01/07 02:13:29;;;;;;;13.05;7.20;;;4.10;99.90;;;;;;5053256;28;20037;-57
2021/01/07 02:15:55;;;;;;;12.68;7.30;;;4.20;99.90;;;;;;5053177;28;20052;-58
2021/01/07 02:18:21;;;;;;;11.27;6.88;;;4.20;99.90;;;;;;5052940;28;20028;-59
2021/01/07 02:20:46;;;;;;;10.85;6.68;;;4.30;99.90;;;;;;5054670;28;20031;-59
2021/01/07 02:23:12;;;;;;;14.15;8.07;;;4.00;99.90;;;;;;5053702;28;20437;-59
2021/01/07 02:25:38;;;;;;;14.85;7.50;;;4.00;99.90;;;;;;5054489;28;20025;-59
2021/01/07 02:28:04;;;;;;;11.13;8.27;;;4.10;99.90;;;;;;5054220;28;20029;-59
2021/01/07 02:30:30;;;;;;;11.93;7.53;;;4.00;99.90;;;;;;5054113;28;20079;-59
2021/01/07 02:32:55;;;;;;;11.50;6.95;;;3.90;99.90;;;;;;5054337;28;20463;-59
2021/01/07 02:35:21;;;;;;;14.02;8.30;;;3.90;99.90;;;;;;5053616;28;20436;-59
2021/01/07 02:37:46;;;;;;;14.95;9.23;;;3.80;99.90;;;;;;5053132;28;20032;-60
2021/01/07 02:40:13;;;;;;;14.25;8.90;;;3.90;99.90;;;;;;5053194;28;20542;-59
2021/01/07 02:42:39;;;;;;;20.67;12.13;;;3.70;99.90;;;;;;5053891;28;20464;-62
2021/01/07 02:45:08;;;;;;;16.85;10.52;;;3.80;99.90;;;;;;5054128;28;20040;-58
2021/01/07 02:47:34;;;;;;;19.33;11.73;;;3.70;99.90;;;;;;5054650;28;20386;-58
2021/01/07 02:50:00;;;;;;;22.45;13.52;;;3.90;99.90;;;;;;5053268;28;20025;-58
2021/01/07 02:52:26;;;;;;;20.75;11.35;;;4.00;99.90;;;;;;5052873;28;20124;-58
2021/01/07 02:54:52;;;;;;;21.73;12.52;;;4.10;99.90;;;;;;5054718;28;20105;-58
2021/01/07 02:57:18;;;;;;;23.13;12.65;;;4.10;99.90;;;;;;5052211;28;20449;-58
2021/01/07 02:59:43;;;;;;;21.77;12.82;;;4.10;99.90;;;;;;5053030;28;20025;-59
2021/01/07 03:02:09;;;;;;;22.45;13.02;;;4.10;99.90;;;;;;5053307;28;20025;-59
2021/01/07 03:04:35;;;;;;;24.90;13.38;;;4.00;99.90;;;;;;5052555;28;20029;-58
2021/01/07 03:07:00;;;;;;;19.92;12.98;;;4.10;99.90;;;;;;5053626;28;20033;-58
2021/01/07 03:09:26;;;;;;;21.48;13.25;;;4.20;99.90;;;;;;5051752;28;20332;-62
2021/01/07 03:11:52;;;;;;;20.42;11.82;;;4.20;99.90;;;;;;5054159;28;20370;-59
2021/01/07 03:14:17;;;;;;;19.52;11.90;;;4.20;99.90;;;;;;5053323;28;20474;-60
2021/01/07 03:16:43;;;;;;;19.52;11.70;;;4.00;99.90;;;;;;5053196;28;20536;-58
2021/01/07 03:19:08;;;;;;;18.85;11.27;;;4.10;99.90;;;;;;5051786;28;20044;-58
2021/01/07 03:21:35;;;;;;;18.35;10.77;;;4.00;99.90;;;;;;5052429;28;20025;-62
2021/01/07 03:24:00;;;;;;;18.23;11.45;;;4.00;99.90;;;;;;5052356;28;20099;-58
2021/01/07 03:26:26;;;;;;;18.95;10.27;;;4.00;99.90;;;;;;5051331;28;20036;-57
2021/01/07 03:28:51;;;;;;;17.80;11.00;;;3.90;99.90;;;;;;5051729;28;20036;-58
2021/01/07 03:31:17;;;;;;;16.52;10.75;;;3.90;99.90;;;;;;5052443;28;20029;-58
2021/01/07 03:33:42;;;;;;;17.58;10.90;;;3.90;99.90;;;;;;5051848;28;20041;-58
2021/01/07 03:36:08;;;;;;;16.38;10.40;;;3.80;99.90;;;;;;5052351;28;20031;-69
2021/01/07 03:38:34;;;;;;;17.55;10.57;;;3.90;99.90;;;;;;5053324;28;20482;-61
2021/01/07 03:40:59;;;;;;;21.13;11.00;;;3.90;99.90;;;;;;5051807;28;20051;-59
2021/01/07 03:43:25;;;;;;;15.95;9.70;;;3.80;99.90;;;;;;5050785;28;20028;-58
2021/01/07 03:45:51;;;;;;;15.18;9.73;;;3.90;99.90;;;;;;5052426;28;20035;-58
2021/01/07 03:48:16;;;;;;;16.55;11.32;;;3.80;99.90;;;;;;5052443;28;20090;-59
2021/01/07 03:50:42;;;;;;;15.80;9.70;;;3.80;99.90;;;;;;5052767;28;20429;-59
2021/01/07 03:53:07;;;;;;;16.83;10.05;;;3.80;99.90;;;;;;5052771;28;20033;-58
2021/01/07 03:55:36;;;;;;;15.18;9.73;;;3.80;99.90;;;;;;5050800;28;20025;-58
2021/01/07 03:58:01;;;;;;;15.98;9.32;;;3.90;99.90;;;;;;5051345;28;20475;-57
2021/01/07 04:00:27;;;;;;;14.73;9.70;;;3.90;99.90;;;;;;5052193;28;20091;-58
2021/01/07 04:02:53;;;;;;;15.50;8.77;;;3.70;99.90;;;;;;5051838;28;20386;-59
2021/01/07 04:05:18;;;;;;;18.45;8.85;;;3.70;99.90;;;;;;5052161;28;20108;-63
2021/01/07 04:07:44;;;;;;;19.08;9.63;;;3.70;99.90;;;;;;5053268;28;20017;-62
2021/01/07 04:10:10;;;;;;;14.32;9.10;;;3.50;99.90;;;;;;5051989;28;20405;-71
2021/01/07 04:12:36;;;;;;;16.05;8.40;;;3.50;99.90;;;;;;5053200;28;20041;-60
2021/01/07 04:15:03;;;;;;;15.07;8.73;;;3.70;99.90;;;;;;5053676;28;20031;-59
2021/01/07 04:17:30;;;;;;;15.38;7.40;;;3.60;99.90;;;;;;5052396;28;20040;-61
2021/01/07 04:19:56;;;;;;;15.65;8.88;;;3.70;99.90;;;;;;5052745;28;20057;-59
2021/01/07 04:22:22;;;;;;;14.20;8.10;;;3.80;99.90;;;;;;5051191;28;20056;-62
2021/01/07 04:24:47;;;;;;;14.23;9.07;;;3.80;99.90;;;;;;5052310;28;20075;-58
2021/01/07 04:27:13;;;;;;;15.55;8.10;;;3.80;99.90;;;;;;5051550;28;20021;-60
2021/01/07 04:29:39;;;;;;;14.05;8.85;;;3.80;99.90;;;;;;5053119;28;20375;-60
2021/01/07 04:32:05;;;;;;;15.63;10.13;;;3.80;99.90;;;;;;5051621;28;20025;-61
2021/01/07 04:34:30;;;;;;;14.25;9.02;;;3.80;99.90;;;;;;5051354;28;20192;-58
2021/01/07 04:36:56;;;;;;;14.70;9.05;;;3.80;99.90;;;;;;5052173;28;20553;-58
2021/01/07 04:39:22;;;;;;;20.95;9.25;;;3.80;99.90;;;;;;5052172;28;20052;-59
2021/01/07 04:41:47;;;;;;;15.90;8.98;;;3.80;99.90;;;;;;5051381;28;20063;-59
2021/01/07 04:44:14;;;;;;;16.80;9.57;;;3.80;99.90;;;;;;5052013;28;20025;-60
2021/01/07 04:46:39;;;;;;;17.05;10.40;;;3.70;99.90;;;;;;5052572;28;20238;-58
2021/01/07 04:49:05;;;;;;;19.42;11.63;;;3.80;99.90;;;;;;5052900;28;20108;-62
2021/01/07 04:51:31;;;;;;;18.45;10.75;;;3.80;99.90;;;;;;5050673;28;20378;-59
2021/01/07 04:53:56;;;;;;;20.33;10.85;;;3.80;99.90;;;;;;5051443;28;20037;-64
2021/01/07 04:56:22;;;;;;;16.23;9.18;;;3.80;99.90;;;;;;5052504;28;20025;-60
2021/01/07 04:58:48;;;;;;;15.18;9.52;;;3.90;99.90;;;;;;5051307;28;20511;-58
2021/01/07 05:01:14;;;;;;;17.33;10.82;;;3.80;99.90;;;;;;5051668;28;20025;-66
2021/01/07 05:03:44;;;;;;;16.58;10.20;;;3.80;99.90;;;;;;5051388;28;20060;-58
2021/01/07 05:06:09;;;;;;;14.93;9.60;;;3.80;99.90;;;;;;5050742;28;20033;-58
2021/01/07 05:08:35;;;;;;;16.15;10.27;;;3.80;99.90;;;;;;5052056;28;20083;-58
2021/01/07 05:11:01;;;;;;;15.13;8.95;;;3.70;99.90;;;;;;5051301;28;20459;-58
2021/01/07 05:13:26;;;;;;;17.10;9.45;;;3.70;99.90;;;;;;5053188;28;20041;-62
2021/01/07 05:15:52;;;;;;;14.70;8.88;;;3.70;99.90;;;;;;5054913;28;20040;-60
2021/01/07 05:18:18;;;;;;;20.27;10.43;;;3.70;99.90;;;;;;5054045;28;20383;-58
2021/01/07 05:20:43;;;;;;;17.20;9.98;;;3.70;99.90;;;;;;5054990;28;20059;-65
2021/01/07 05:23:10;;;;;;;16.95;9.25;;;3.80;99.90;;;;;;5055243;28;20036;-59
2021/01/07 05:25:43;;;;;;;16.80;9.60;;;3.80;99.90;;;;;;5054225;28;20037;-59
2021/01/07 05:28:09;;;;;;;15.98;9.70;;;3.80;99.90;;;;;;5055471;28;20025;-59
2021/01/07 05:30:36;;;;;;;18.65;10.68;;;3.90;99.90;;;;;;5053948;28;20200;-59
2021/01/07 05:33:06;;;;;;;19.65;10.38;;;3.90;99.90;;;;;;5055361;28;20474;-60
2021/01/07 05:35:32;;;;;;;21.42;11.15;;;3.80;99.90;;;;;;5056411;28;20037;-61
2021/01/07 05:38:00;;;;;;;20.17;11.90;;;3.80;99.90;;;;;;5055217;28;20082;-61
2021/01/07 05:40:26;;;;;;;17.30;10.40;;;3.70;99.90;;;;;;5054894;28;20029;-66
2021/01/07 05:42:56;;;;;;;15.68;10.32;;;3.70;99.90;;;;;;5056443;28;20025;-63
2021/01/07 05:45:22;;;;;;;19.67;10.88;;;3.80;99.90;;;;;;5054593;28;20474;-61
2021/01/07 05:47:52;;;;;;;21.85;11.38;;;3.80;99.90;;;;;;5056241;28;20025;-59
2021/01/07 05:50:21;;;;;;;20.52;10.60;;;3.70;99.90;;;;;;5053679;28;20108;-61
2021/01/07 05:52:48;;;;;;;20.98;10.38;;;3.70;99.90;;;;;;5054047;28;20048;-59
2021/01/07 05:55:17;;;;;;;16.77;10.88;;;3.70;99.90;;;;;;5055023;28;20052;-63
2021/01/07 05:57:43;;;;;;;19.52;11.65;;;3.80;99.90;;;;;;5053697;28;20079;-60
2021/01/07 06:00:18;;;;;;;18.85;10.52;;;3.80;99.90;;;;;;5055289;28;20025;-60
2021/01/07 06:02:45;;;;;;;16.55;10.43;;;3.80;99.90;;;;;;5053863;28;20059;-58
2021/01/07 06:05:13;;;;;;;14.55;9.60;;;3.80;99.90;;;;;;5053709;28;20028;-60
2021/01/07 06:07:39;;;;;;;18.92;10.57;;;3.90;99.90;;;;;;5054595;28;20032;-61
2021/01/07 06:10:07;;;;;;;20.75;10.10;;;3.90;99.90;;;;;;5055122;28;20068;-60
2021/01/07 06:12:33;;;;;;;16.27;9.70;;;3.90;99.90;;;;;;5054022;28;20037;-59
2021/01/07 06:15:22;;;;;;;21.08;10.82;;;3.80;99.90;;;;;;5053573;28;20028;-59
2021/01/07 06:17:47;;;;;;;20.55;10.88;;;3.80;99.90;;;;;;5053400;28;20025;-60
2021/01/07 06:20:18;;;;;;;19.40;10.18;;;3.80;99.90;;;;;;5053731;28;20021;-60
2021/01/07 06:22:45;;;;;;;18.50;9.73;;;3.70;99.90;;;;;;5053667;28;20031;-60
2021/01/07 06:25:12;;;;;;;19.20;10.55;;;3.80;99.90;;;;;;5054137;28;20055;-60
2021/01/07 06:27:42;;;;;;;19.67;11.10;;;3.70;99.90;;;;;;5052919;28;20308;-59
2021/01/07 06:30:07;;;;;;;19.23;12.07;;;3.70;99.90;;;;;;5053425;28;20107;-58
2021/01/07 06:32:40;;;;;;;20.85;10.45;;;3.80;99.90;;;;;;5054083;28;20505;-63
2021/01/07 06:35:06;;;;;;;27.77;11.73;;;3.70;99.90;;;;;;5053400;28;20051;-59
2021/01/07 06:37:46;;;;;;;21.95;12.20;;;3.80;99.90;;;;;;5053069;28;20378;-59
2021/01/07 06:40:15;;;;;;;24.35;12.77;;;3.70;99.90;;;;;;5053292;28;20021;-59
2021/01/07 06:42:42;;;;;;;22.33;13.10;;;3.60;99.90;;;;;;5054037;28;20060;-59
2021/01/07 06:45:10;;;;;;;25.55;13.73;;;3.60;99.90;;;;;;5052837;28;20502;-59
2021/01/07 06:47:37;;;;;;;26.75;14.07;;;3.70;99.90;;;;;;5053858;28;20048;-61
2021/01/07 06:50:05;;;;;;;24.17;14.07;;;3.70;99.90;;;;;;5054223;28;20036;-59
2021/01/07 06:52:50;;;;;;;26.00;13.20;;;3.60;99.90;;;;;;5053344;28;20055;-58
2021/01/07 06:55:18;;;;;;;24.80;13.85;;;3.70;99.90;;;;;;5054119;28;20119;-58
2021/01/07 06:57:48;;;;;;;22.27;14.27;;;3.60;99.90;;;;;;5053284;28;20045;-59
2021/01/07 07:00:20;;;;;;;30.67;14.80;;;3.60;99.90;;;;;;5052762;28;20025;-58
2021/01/07 07:03:09;;;;;;;26.38;13.82;;;3.50;99.90;;;;;;5054101;28;20028;-59
2021/01/07 07:05:39;;;;;;;24.90;14.65;;;3.50;99.90;;;;;;5052615;28;20140;-58
2021/01/07 07:08:14;;;;;;;30.80;14.77;;;3.50;99.90;;;;;;5054045;28;20032;-60
2021/01/07 07:10:39;;;;;;;26.40;14.90;;;3.50;99.90;;;;;;5054153;28;20029;-60
2021/01/07 07:13:16;;;;;;;30.08;14.52;;;3.50;99.90;;;;;;5054506;28;20114;-59
2021/01/07 07:15:42;;;;;;;27.15;14.75;;;3.60;99.90;;;;;;5051939;28;20056;-58
2021/01/07 07:18:08;;;;;;;26.73;14.40;;;3.50;99.90;;;;;;5053803;28;20470;-60
2021/01/07 07:20:44;;;;;;;23.70;13.02;;;3.40;99.90;;;;;;5053379;28;20064;-61
2021/01/07 07:23:19;;;;;;;29.52;13.23;;;3.40;99.90;;;;;;5053710;28;20078;-63
2021/01/07 07:25:53;;;;;;;26.88;14.43;;;3.40;99.90;;;;;;5053084;28;20021;-60
2021/01/07 07:28:22;;;;;;;27.25;14.15;;;3.50;99.90;;;;;;5053930;28;20025;-60
2021/01/07 07:30:48;;;;;;;26.88;14.73;;;3.50;99.90;;;;;;5053693;28;20036;-62
2021/01/07 07:33:33;;;;;;;29.40;13.80;;;3.50;99.90;;;;;;5054881;28;20065;-60
2021/01/07 07:35:59;;;;;;;25.95;13.85;;;3.50;99.90;;;;;;5054924;28;20025;-61
2021/01/07 07:38:36;;;;;;;24.00;13.77;;;3.50;99.90;;;;;;5053337;28;20112;-61
2021/01/07 07:41:08;;;;;;;27.63;14.30;;;3.50;99.90;;;;;;5055175;28;20106;-60
2021/01/07 07:43:35;;;;;;;25.85;13.88;;;3.50;99.90;;;;;;5054376;28;20111;-63
2021/01/07 07:46:02;;;;;;;25.33;13.85;;;3.60;99.90;;;;;;5053719;28;20537;-60
2021/01/07 07:48:29;;;;;;;22.63;12.43;;;3.60;99.90;;;;;;5054206;28;20029;-60
2021/01/07 07:51:06;;;;;;;26.75;14.02;;;3.70;99.90;;;;;;5054147;28;20104;-60
2021/01/07 07:53:33;;;;;;;25.67;12.25;;;3.60;99.90;;;;;;5054277;28;20056;-60
2021/01/07 07:55:59;;;;;;;22.38;12.73;;;3.60;99.90;;;;;;5053650;28;20454;-60
2021/01/07 07:58:25;;;;;;;23.48;12.95;;;3.50;99.90;;;;;;5053822;28;20037;-61
2021/01/07 08:00:53;;;;;;;23.10;13.20;;;3.50;99.90;;;;;;5051738;28;20078;-60
2021/01/07 08:03:40;;;;;;;23.80;13.65;;;3.50;99.90;;;;;;5052858;28;20035;-59
2021/01/07 08:06:06;;;;;;;22.67;13.40;;;3.50;99.90;;;;;;5052170;28;20467;-60
2021/01/07 08:08:33;;;;;;;24.23;13.77;;;3.50;99.90;;;;;;5051511;28;20025;-64
2021/01/07 08:11:01;;;;;;;22.90;12.18;;;3.50;99.90;;;;;;5052142;28;20056;-60
2021/01/07 08:13:29;;;;;;;23.35;12.52;;;3.40;99.90;;;;;;5051539;28;20044;-61
2021/01/07 08:15:56;;;;;;;23.13;13.23;;;3.50;99.90;;;;;;5052132;28;20032;-58
2021/01/07 08:18:27;;;;;;;23.50;12.60;;;3.50;99.90;;;;;;5052075;28;20055;-60
2021/01/07 08:20:55;;;;;;;22.58;13.75;;;3.60;99.90;;;;;;5052731;28;20021;-60
2021/01/07 08:23:22;;;;;;;25.85;14.00;;;3.70;99.90;;;;;;5052047;28;20127;-60
2021/01/07 08:25:50;;;;;;;23.35;13.27;;;3.70;99.90;;;;;;5052904;28;20059;-59
2021/01/07 08:28:37;;;;;;;18.92;11.00;;;3.50;99.90;;;;;;5053328;28;20051;-61
2021/01/07 08:31:18;;;;;;;25.20;12.20;;;3.60;99.90;;;;;;5053601;28;20485;-58
2021/01/07 08:33:45;;;;;;;22.95;12.20;;;3.60;99.90;;;;;;5051329;28;20053;-59
2021/01/07 08:36:13;;;;;;;25.52;12.27;;;3.70;99.90;;;;;;5052140;28;20459;-61
2021/01/07 08:38:41;;;;;;;22.60;12.05;;;3.70;99.90;;;;;;5052612;28;20078;-59
2021/01/07 08:41:23;;;;;;;20.95;12.55;;;3.70;99.90;;;;;;5053104;28;20036;-61
2021/01/07 08:43:51;;;;;;;22.63;12.43;;;3.60;99.90;;;;;;5052867;28;20475;-58
2021/01/07 08:46:41;;;;;;;21.45;11.93;;;3.60;99.90;;;;;;5052219;28;20124;-58
2021/01/07 08:49:09;;;;;;;21.70;11.32;;;3.50;99.90;;;;;;5056672;28;20040;-59
2021/01/07 08:51:43;;;;;;;21.35;11.52;;;3.60;99.90;;;;;;5057162;28;20056;-59
2021/01/07 08:54:13;;;;;;;22.25;11.32;;;3.50;99.90;;;;;;5057691;28;20037;-65
2021/01/07 08:56:49;;;;;;;25.63;12.25;;;3.50;99.90;;;;;;5055349;28;20481;-64
2021/01/07 08:59:27;;;;;;;23.80;12.18;;;3.60;99.90;;;;;;5056087;28;20052;-60
2021/01/07 09:02:02;;;;;;;20.25;11.73;;;3.60;99.90;;;;;;5057142;28;20044;-60
2021/01/07 09:04:41;;;;;;;21.45;12.10;;;3.60;99.90;;;;;;5055675;28;20059;-71
2021/01/07 09:07:13;;;;;;;22.70;11.73;;;3.70;99.90;;;;;;5055801;28;20037;-60
2021/01/07 09:09:41;;;;;;;22.88;11.60;;;3.70;99.90;;;;;;5056519;28;20490;-59
2021/01/07 09:12:27;;;;;;;21.48;12.07;;;3.60;99.90;;;;;;5055290;28;20037;-61
2021/01/07 09:15:10;;;;;;;29.23;15.68;;;3.60;99.90;;;;;;5048057;28;20096;-58
2021/01/07 09:17:39;;;;;;;19.88;10.85;;;3.60;99.90;;;;;;5056734;28;20096;-60
2021/01/07 09:20:06;;;;;;;23.25;12.05;;;3.50;99.90;;;;;;5056514;28;20033;-59
2021/01/07 09:22:33;;;;;;;20.50;12.10;;;3.60;99.90;;;;;;5057690;28;20036;-60
2021/01/07 09:25:00;;;;;;;27.13;12.27;;;3.50;99.90;;;;;;5058105;28;20108;-62
2021/01/07 09:27:26;;;;;;;21.77;11.27;;;3.50;99.90;;;;;;5056687;28;20037;-62
2021/01/07 09:29:52;;;;;;;21.95;12.43;;;3.40;99.90;;;;;;5055519;28;20029;-61
2021/01/07 09:32:18;;;;;;;20.27;11.85;;;3.50;99.90;;;;;;5057050;28;20024;-59
2021/01/07 09:34:46;;;;;;;21.25;11.05;;;3.40;99.90;;;;;;5056140;28;20036;-58
2021/01/07 09:37:18;;;;;;;23.42;12.07;;;3.40;99.90;;;;;;5055295;28;20031;-58
2021/01/07 09:39:45;;;;;;;26.40;12.25;;;3.50;99.90;;;;;;5054801;28;20116;-60
2021/01/07 09:42:11;;;;;;;20.85;11.95;;;3.50;99.90;;;;;;5056279;28;20413;-59
2021/01/07 09:44:37;;;;;;;21.27;12.25;;;3.60;99.90;;;;;;5054519;28;20140;-59
2021/01/07 09:47:04;;;;;;;21.02;11.68;;;3.50;99.90;;;;;;5054841;28;20033;-67
2021/01/07 09:49:32;;;;;;;22.42;12.90;;;3.50;99.90;;;;;;5051894;28;20083;-72
2021/01/07 09:52:00;;;;;;;23.65;12.30;;;3.60;99.90;;;;;;5037130;28;20078;-60
2021/01/07 09:54:26;;;;;;;30.90;13.00;;;3.70;99.90;;;;;;5053992;28;20128;-59
2021/01/07 09:56:54;;;;;;;20.80;11.98;;;3.70;99.90;;;;;;5054806;28;20150;-60
2021/01/07 09:59:24;;;;;;;23.88;12.10;;;3.70;99.90;;;;;;5055364;28;20037;-60
2021/01/07 10:02:01;;;;;;;23.02;11.43;;;3.60;99.90;;;;;;5053016;28;20031;-60
2021/01/07 10:04:27;;;;;;;21.30;12.00;;;3.70;99.90;;;;;;5054391;28;20032;-61
2021/01/07 10:06:53;;;;;;;21.00;10.82;;;3.70;99.90;;;;;;5054092;28;20032;-60
2021/01/07 10:09:19;;;;;;;24.42;13.23;;;3.60;99.90;;;;;;5053641;28;20075;-58
2021/01/07 10:11:49;;;;;;;23.17;11.52;;;3.60;99.90;;;;;;5052690;28;20060;-58
2021/01/07 10:14:15;;;;;;;18.98;11.52;;;3.70;99.90;;;;;;5054367;28;20036;-59
2021/01/07 10:16:45;;;;;;;21.20;11.05;;;3.70;99.90;;;;;;5071105;28;20045;-59
2021/01/07 10:19:11;;;;;;;21.83;12.43;;;3.70;99.90;;;;;;5072251;28;20123;-59
2021/01/07 10:21:38;;;;;;;19.98;11.68;;;3.70;99.90;;;;;;5070581;28;20064;-64
2021/01/07 10:24:05;;;;;;;21.98;11.88;;;5.70;99.90;;;;;;5071575;28;20036;-58
2021/01/07 10:26:32;;;;;;;19.75;11.75;;;5.20;99.90;;;;;;5071762;28;20075;-58
2021/01/07 10:28:58;;;;;;;20.15;10.82;;;4.70;99.90;;;;;;5071303;28;20032;-59
2021/01/07 10:31:24;;;;;;;19.67;11.57;;;4.30;99.90;;;;;;5071664;28;20036;-60
2021/01/07 10:33:50;;;;;;;20.25;11.02;;;4.10;99.90;;;;;;5070776;28;20047;-61
2021/01/07 10:36:19;;;;;;;20.20;11.05;;;4.10;99.90;;;;;;5054796;28;20195;-59
2021/01/07 10:38:48;;;;;;;19.10;10.88;;;4.10;99.90;;;;;;5064778;28;20028;-60
2021/01/07 10:41:15;;;;;;;22.10;11.82;;;4.10;99.90;;;;;;5071526;28;20121;-60
2021/01/07 10:43:41;;;;;;;19.15;10.77;;;3.90;99.90;;;;;;5070327;28;20028;-60
2021/01/07 10:46:23;;;;;;;18.88;10.68;;;3.90;99.90;;;;;;5071227;28;20029;-60
2021/01/07 10:48:52;;;;;;;19.05;10.10;;;4.00;99.90;;;;;;5035995;28;20049;-61
2021/01/07 10:51:18;;;;;;;20.67;11.68;;;3.90;99.90;;;;;;5053908;28;20032;-59
2021/01/07 10:54:31;;;;;;;17.58;9.68;;;3.80;99.90;;;;;;5052514;28;20033;-59
2021/01/07 10:57:27;;;;;;;18.95;10.63;;;3.90;99.90;;;;;;5050691;28;20043;-59
2021/01/07 11:00:09;;;;;;;17.67;9.25;;;3.80;99.90;;;;;;5053814;28;20037;-60
2021/01/07 11:03:00;;;;;;;18.48;9.27;;;3.80;99.90;;;;;;5054415;28;20028;-63
2021/01/07 11:05:30;;;;;;;14.48;9.40;;;3.80;99.90;;;;;;5053400;28;20119;-61
2021/01/07 11:08:16;;;;;;;20.58;10.05;;;3.80;99.90;;;;;;5053813;28;20486;-60
2021/01/07 11:10:50;;;;;;;20.90;11.38;;;3.90;99.90;;;;;;5054101;28;20028;-59
2021/01/07 11:13:18;;;;;;;18.40;9.48;;;4.00;99.90;;;;;;5054280;28;20054;-59
2021/01/07 11:15:45;;;;;;;20.63;9.95;;;4.00;99.90;;;;;;5052728;28;20029;-58
2021/01/07 11:18:15;;;;;;;17.38;9.80;;;4.00;99.90;;;;;;5053588;28;20486;-61
2021/01/07 11:20:49;;;;;;;18.48;9.73;;;3.80;99.90;;;;;;5053214;28;20033;-58
2021/01/07 11:23:15;;;;;;;19.73;10.20;;;3.80;99.90;;;;;;5052499;28;20115;-60
2021/01/07 11:25:41;;;;;;;13.85;9.15;;;3.90;99.90;;;;;;5052898;28;20033;-58
2021/01/07 11:28:09;;;;;;;17.52;8.75;;;3.80;99.90;;;;;;5052634;28;20493;-60
2021/01/07 11:30:37;;;;;;;15.40;8.68;;;3.70;99.90;;;;;;5053625;28;20029;-58
2021/01/07 11:33:03;;;;;;;15.75;9.05;;;3.80;99.90;;;;;;5053928;28;20041;-61
2021/01/07 11:35:30;;;;;;;16.33;8.40;;;3.90;99.90;;;;;;5054625;28;20032;-70
2021/01/07 11:38:01;;;;;;;17.63;10.07;;;3.90;99.90;;;;;;5053374;28;20056;-62
2021/01/07 11:40:51;;;;;;;15.05;9.48;;;3.90;99.90;;;;;;5053967;28;20032;-61
2021/01/07 11:43:51;;;;;;;16.98;9.02;;;4.00;99.90;;;;;;5053616;28;20029;-60
2021/01/07 11:46:18;;;;;;;20.90;10.63;;;3.90;99.90;;;;;;5052700;28;20029;-59
2021/01/07 11:48:56;;;;;;;15.75;9.02;;;4.00;99.90;;;;;;5052003;28;20364;-64
2021/01/07 11:51:22;;;;;;;17.27;9.02;;;3.90;99.90;;;;;;5036532;28;20113;-61
2021/01/07 11:53:50;;;;;;;18.70;9.80;;;3.90;99.90;;;;;;5053055;28;20101;-60
2021/01/07 11:56:16;;;;;;;19.48;9.32;;;3.90;99.90;;;;;;5053328;28;20029;-62
2021/01/07 11:58:42;;;;;;;20.98;10.57;;;3.90;99.90;;;;;;5054014;28;20052;-61
2021/01/07 12:01:09;;;;;;;16.33;9.20;;;4.00;99.90;;;;;;5053784;28;20116;-65
2021/01/07 12:03:36;;;;;;;16.65;9.55;;;3.90;99.90;;;;;;5052563;28;20536;-59
2021/01/07 12:06:08;;;;;;;17.67;10.35;;;4.00;99.90;;;;;;5052607;28;20027;-58
2021/01/07 12:09:04;;;;;;;16.05;9.40;;;4.00;99.90;;;;;;5053146;28;20083;-58
2021/01/07 12:11:49;;;;;;;17.65;9.45;;;3.80;99.90;;;;;;5052864;28;20443;-58
2021/01/07 12:14:22;;;;;;;17.02;9.63;;;3.90;99.90;;;;;;5051908;28;20124;-60
2021/01/07 12:16:59;;;;;;;18.75;9.98;;;3.90;99.90;;;;;;5050974;28;20041;-60
2021/01/07 12:19:28;;;;;;;15.48;8.70;;;3.90;99.90;;;;;;5051729;28;20025;-64
2021/01/07 12:21:55;;;;;;;16.95;9.88;;;3.90;99.90;;;;;;5052024;28;20383;-58
2021/01/07 12:24:23;;;;;;;15.00;8.52;;;3.90;99.90;;;;;;5055321;28;20025;-60
2021/01/07 12:26:49;;;;;;;16.73;8.80;;;3.90;99.90;;;;;;5056347;28;20036;-61
2021/01/07 12:29:24;;;;;;;15.45;8.95;;;4.00;99.90;;;;;;5056929;28;20103;-59
2021/01/07 12:31:52;;;;;;;19.02;10.02;;;4.00;99.90;;;;;;5055187;28;20029;-61
2021/01/07 12:34:54;;;;;;;18.90;9.57;;;3.80;99.90;;;;;;5055488;28;20065;-60
2021/01/07 12:37:21;;;;;;;17.70;9.35;;;4.00;99.90;;;;;;5056352;28;20478;-59
2021/01/07 12:40:09;;;;;;;16.70;9.88;;;4.00;99.90;;;;;;5056096;28;20183;-58
2021/01/07 12:42:44;;;;;;;15.57;9.35;;;4.00;99.90;;;;;;5056446;28;20032;-63
2021/01/07 12:45:17;;;;;;;14.85;9.15;;;4.00;99.90;;;;;;5056434;28;20474;-60
2021/01/07 12:47:43;;;;;;;15.65;8.95;;;4.00;99.90;;;;;;5033852;28;20033;-60
2021/01/07 12:50:11;;;;;;;17.35;9.02;;;4.10;99.90;;;;;;5017939;28;20042;-59